sensor_id;sensor_type;location;lat;lon;timestamp;pressure;altitude;pressure_sealevel;temperature;humidity
72975;BME280;61166;54.228;37.632;2023-01-16T00:00:57;99689.47;;;-4.48;nan
72975;BME280;61166;54.228;37.632;2023-01-16T00:03:24;99697.81;;;-4.57;nan
72975;BME280;61166;54.228;37.632;2023-01-16T00:05:51;99687.75;;;-4.47;nan
72975;BME280;61166;54.228;37.632;2023-01-16T00:08:17;99687.53;;;-4.57;nan
72975;BME280;61166;54.228;37.632;2023-01-16T00:10:44;99706.72;;;-4.50;nan
72975;BME280;61166;54.228;37.632;2023-01-16T00:13:12;99713.44;;;-4.73;nan
72975;BME280;61166;54.228;37.632;2023-01-16T00:15:48;99684.88;;;-4.55;nan
72975;BME280;61166;54.228;37.632;2023-01-16T00:18:15;99687.88;;;-4.74;nan
72975;BME280;61166;54.228;37.632;2023-01-16T00:20:41;99686.81;;;-4.59;nan
72975;BME280;61166;54.228;37.632;2023-01-16T00:23:09;99671.13;;;-4.67;nan
72975;BME280;61166;54.228;37.632;2023-01-16T00:25:40;99668.03;;;-4.59;nan
72975;BME280;61166;54.228;37.632;2023-01-16T00:28:11;99669.78;;;-4.47;nan
72975;BME280;61166;54.228;37.632;2023-01-16T00:30:38;99674.69;;;-4.57;nan
72975;BME280;61166;54.228;37.632;2023-01-16T00:33:05;99679.03;;;-4.70;nan
72975;BME280;61166;54.228;37.632;2023-01-16T00:35:32;99684.97;;;-4.82;nan
72975;BME280;61166;54.228;37.632;2023-01-16T00:37:59;99685.41;;;-4.76;nan
72975;BME280;61166;54.228;37.632;2023-01-16T00:40:26;99674.31;;;-4.76;nan
72975;BME280;61166;54.228;37.632;2023-01-16T00:42:52;99675.56;;;-4.69;nan
72975;BME280;61166;54.228;37.632;2023-01-16T00:45:19;99664.47;;;-4.70;nan
72975;BME280;61166;54.228;37.632;2023-01-16T00:47:46;99672.34;;;-4.60;nan
72975;BME280;61166;54.228;37.632;2023-01-16T00:50:13;99658.63;;;-4.72;nan
72975;BME280;61166;54.228;37.632;2023-01-16T00:52:39;99664.56;;;-4.71;nan
72975;BME280;61166;54.228;37.632;2023-01-16T00:55:06;99665.59;;;-4.74;nan
72975;BME280;61166;54.228;37.632;2023-01-16T00:57:33;99657.69;;;-4.83;nan
72975;BME280;61166;54.228;37.632;2023-01-16T00:59:59;99651.75;;;-4.71;nan
72975;BME280;61166;54.228;37.632;2023-01-16T01:02:26;99642.25;;;-4.58;nan
72975;BME280;61166;54.228;37.632;2023-01-16T01:04:52;99650.91;;;-4.72;nan
72975;BME280;61166;54.228;37.632;2023-01-16T01:07:19;99654.31;;;-4.84;nan
72975;BME280;61166;54.228;37.632;2023-01-16T01:09:46;99650.19;;;-4.99;nan
72975;BME280;61166;54.228;37.632;2023-01-16T01:12:12;99648.66;;;-4.89;nan
72975;BME280;61166;54.228;37.632;2023-01-16T01:14:39;99632.34;;;-4.88;nan
72975;BME280;61166;54.228;37.632;2023-01-16T01:17:06;99645.06;;;-4.99;nan
72975;BME280;61166;54.228;37.632;2023-01-16T01:19:32;99622.38;;;-4.92;nan
72975;BME280;61166;54.228;37.632;2023-01-16T01:21:59;99642.78;;;-5.04;nan
72975;BME280;61166;54.228;37.632;2023-01-16T01:24:25;99629.75;;;-5.01;nan
72975;BME280;61166;54.228;37.632;2023-01-16T01:26:52;99651.41;;;-5.05;nan
72975;BME280;61166;54.228;37.632;2023-01-16T01:29:19;99634.88;;;-5.13;nan
72975;BME280;61166;54.228;37.632;2023-01-16T01:31:45;99624.13;;;-5.06;nan
72975;BME280;61166;54.228;37.632;2023-01-16T01:34:12;99638.25;;;-5.13;nan
72975;BME280;61166;54.228;37.632;2023-01-16T01:36:39;99634.16;;;-5.28;nan
72975;BME280;61166;54.228;37.632;2023-01-16T01:39:05;99633.78;;;-5.22;nan
72975;BME280;61166;54.228;37.632;2023-01-16T01:41:32;99636.72;;;-5.28;nan
72975;BME280;61166;54.228;37.632;2023-01-16T01:43:59;99625.03;;;-5.07;nan
72975;BME280;61166;54.228;37.632;2023-01-16T01:46:43;99634.97;;;-5.15;nan
72975;BME280;61166;54.228;37.632;2023-01-16T01:49:24;99625.97;;;-5.08;nan
72975;BME280;61166;54.228;37.632;2023-01-16T01:51:54;99612.09;;;-5.18;nan
72975;BME280;61166;54.228;37.632;2023-01-16T01:54:27;99628.13;;;-5.27;nan
72975;BME280;61166;54.228;37.632;2023-01-16T01:57:04;99627.28;;;-5.15;nan
72975;BME280;61166;54.228;37.632;2023-01-16T01:59:37;99630.16;;;-5.32;nan
72975;BME280;61166;54.228;37.632;2023-01-16T02:02:07;99619.09;;;-5.20;nan
72975;BME280;61166;54.228;37.632;2023-01-16T02:04:40;99622.78;;;-5.24;nan
72975;BME280;61166;54.228;37.632;2023-01-16T02:07:09;99612.63;;;-5.25;nan
72975;BME280;61166;54.228;37.632;2023-01-16T02:09:39;99613.75;;;-5.17;nan
72975;BME280;61166;54.228;37.632;2023-01-16T02:12:08;99617.56;;;-5.10;nan
72975;BME280;61166;54.228;37.632;2023-01-16T02:14:38;99617.66;;;-5.24;nan
72975;BME280;61166;54.228;37.632;2023-01-16T02:17:09;99609.84;;;-5.10;nan
72975;BME280;61166;54.228;37.632;2023-01-16T02:19:42;99606.66;;;-5.13;nan
72975;BME280;61166;54.228;37.632;2023-01-16T02:25:09;99612.63;;;-5.38;nan
72975;BME280;61166;54.228;37.632;2023-01-16T02:30:53;99603.97;;;-5.50;nan
72975;BME280;61166;54.228;37.632;2023-01-16T02:33:28;99610.44;;;-5.44;nan
72975;BME280;61166;54.228;37.632;2023-01-16T02:38:40;99608.41;;;-5.39;nan
72975;BME280;61166;54.228;37.632;2023-01-16T02:41:47;99609.22;;;-5.39;nan
72975;BME280;61166;54.228;37.632;2023-01-16T02:55:27;99582.25;;;-5.44;nan
72975;BME280;61166;54.228;37.632;2023-01-16T02:58:01;99591.47;;;-5.54;nan
72975;BME280;61166;54.228;37.632;2023-01-16T03:00:29;99595.53;;;-5.65;nan
72975;BME280;61166;54.228;37.632;2023-01-16T03:02:56;99585.94;;;-5.48;nan
72975;BME280;61166;54.228;37.632;2023-01-16T03:05:23;99585.41;;;-5.53;nan
72975;BME280;61166;54.228;37.632;2023-01-16T03:08:30;99586.44;;;-5.56;nan
72975;BME280;61166;54.228;37.632;2023-01-16T03:11:12;99568.41;;;-5.42;nan
72975;BME280;61166;54.228;37.632;2023-01-16T03:16:22;99563.09;;;-5.39;nan
72975;BME280;61166;54.228;37.632;2023-01-16T03:27:15;99552.41;;;-5.58;nan
72975;BME280;61166;54.228;37.632;2023-01-16T03:29:56;99547.88;;;-5.67;nan
72975;BME280;61166;54.228;37.632;2023-01-16T03:32:34;99576.44;;;-5.73;nan
72975;BME280;61166;54.228;37.632;2023-01-16T03:35:19;99564.16;;;-5.68;nan
72975;BME280;61166;54.228;37.632;2023-01-16T03:37:55;99553.41;;;-5.73;nan
72975;BME280;61166;54.228;37.632;2023-01-16T03:40:27;99562.81;;;-5.74;nan
72975;BME280;61166;54.228;37.632;2023-01-16T03:43:11;99552.81;;;-5.64;nan
72975;BME280;61166;54.228;37.632;2023-01-16T03:45:44;99554.16;;;-5.58;nan
72975;BME280;61166;54.228;37.632;2023-01-16T03:51:06;99564.31;;;-5.44;nan
72975;BME280;61166;54.228;37.632;2023-01-16T03:53:37;99554.75;;;-5.68;nan
72975;BME280;61166;54.228;37.632;2023-01-16T03:56:21;99553.88;;;-5.41;nan
72975;BME280;61166;54.228;37.632;2023-01-16T03:58:51;99550.56;;;-5.56;nan
72975;BME280;61166;54.228;37.632;2023-01-16T04:01:58;99554.88;;;-5.56;nan
72975;BME280;61166;54.228;37.632;2023-01-16T04:04:33;99547.91;;;-5.54;nan
72975;BME280;61166;54.228;37.632;2023-01-16T04:07:21;99538.66;;;-5.57;nan
72975;BME280;61166;54.228;37.632;2023-01-16T04:09:56;99563.66;;;-5.60;nan
72975;BME280;61166;54.228;37.632;2023-01-16T04:12:28;99544.69;;;-5.71;nan
72975;BME280;61166;54.228;37.632;2023-01-16T04:14:59;99546.53;;;-5.73;nan
72975;BME280;61166;54.228;37.632;2023-01-16T04:17:28;99541.53;;;-5.61;nan
72975;BME280;61166;54.228;37.632;2023-01-16T04:19:55;99529.03;;;-5.66;nan
72975;BME280;61166;54.228;37.632;2023-01-16T04:22:24;99536.41;;;-5.61;nan
72975;BME280;61166;54.228;37.632;2023-01-16T04:24:54;99540.59;;;-5.60;nan
72975;BME280;61166;54.228;37.632;2023-01-16T04:27:22;99537.84;;;-5.57;nan
72975;BME280;61166;54.228;37.632;2023-01-16T04:29:48;99532.59;;;-5.81;nan
72975;BME280;61166;54.228;37.632;2023-01-16T04:32:15;99536.47;;;-5.76;nan
72975;BME280;61166;54.228;37.632;2023-01-16T04:34:42;99537.72;;;-5.69;nan
72975;BME280;61166;54.228;37.632;2023-01-16T04:37:12;99549.50;;;-5.91;nan
72975;BME280;61166;54.228;37.632;2023-01-16T04:39:39;99540.28;;;-5.81;nan
72975;BME280;61166;54.228;37.632;2023-01-16T04:42:06;99531.69;;;-5.80;nan
72975;BME280;61166;54.228;37.632;2023-01-16T04:44:32;99532.41;;;-5.66;nan
72975;BME280;61166;54.228;37.632;2023-01-16T04:46:59;99524.81;;;-5.67;nan
72975;BME280;61166;54.228;37.632;2023-01-16T04:49:26;99531.69;;;-5.68;nan
72975;BME280;61166;54.228;37.632;2023-01-16T04:51:52;99531.69;;;-5.68;nan
72975;BME280;61166;54.228;37.632;2023-01-16T04:54:19;99533.97;;;-5.50;nan
72975;BME280;61166;54.228;37.632;2023-01-16T04:56:46;99536.25;;;-5.33;nan
72975;BME280;61166;54.228;37.632;2023-01-16T04:59:16;99529.63;;;-5.62;nan
72975;BME280;61166;54.228;37.632;2023-01-16T05:01:42;99538.06;;;-5.60;nan
72975;BME280;61166;54.228;37.632;2023-01-16T05:04:10;99524.22;;;-5.58;nan
72975;BME280;61166;54.228;37.632;2023-01-16T05:06:38;99524.13;;;-5.44;nan
72975;BME280;61166;54.228;37.632;2023-01-16T05:09:05;99527.41;;;-5.54;nan
72975;BME280;61166;54.228;37.632;2023-01-16T05:11:33;99533.53;;;-5.57;nan
72975;BME280;61166;54.228;37.632;2023-01-16T05:14:00;99528.31;;;-5.55;nan
72975;BME280;61166;54.228;37.632;2023-01-16T05:16:27;99530.06;;;-5.56;nan
72975;BME280;61166;54.228;37.632;2023-01-16T05:18:54;99511.94;;;-5.40;nan
72975;BME280;61166;54.228;37.632;2023-01-16T05:21:21;99527.09;;;-5.62;nan
72975;BME280;61166;54.228;37.632;2023-01-16T05:23:47;99527.00;;;-5.48;nan
72975;BME280;61166;54.228;37.632;2023-01-16T05:26:14;99523.81;;;-5.52;nan
72975;BME280;61166;54.228;37.632;2023-01-16T05:28:40;99508.84;;;-5.45;nan
72975;BME280;61166;54.228;37.632;2023-01-16T05:31:07;99532.84;;;-5.46;nan
72975;BME280;61166;54.228;37.632;2023-01-16T05:33:33;99528.84;;;-5.50;nan
72975;BME280;61166;54.228;37.632;2023-01-16T05:36:00;99519.72;;;-5.54;nan
72975;BME280;61166;54.228;37.632;2023-01-16T05:38:26;99526.88;;;-5.59;nan
72975;BME280;61166;54.228;37.632;2023-01-16T05:40:53;99515.72;;;-5.46;nan
72975;BME280;61166;54.228;37.632;2023-01-16T05:43:20;99508.13;;;-5.47;nan
72975;BME280;61166;54.228;37.632;2023-01-16T05:45:47;99519.41;;;-5.37;nan
72975;BME280;61166;54.228;37.632;2023-01-16T05:48:13;99510.50;;;-5.44;nan
72975;BME280;61166;54.228;37.632;2023-01-16T05:50:40;99509.97;;;-5.49;nan
72975;BME280;61166;54.228;37.632;2023-01-16T05:53:06;99513.47;;;-5.50;nan
72975;BME280;61166;54.228;37.632;2023-01-16T05:55:42;99528.53;;;-5.58;nan
72975;BME280;61166;54.228;37.632;2023-01-16T05:58:10;99510.81;;;-5.49;nan
72975;BME280;61166;54.228;37.632;2023-01-16T06:00:38;99519.81;;;-5.43;nan
72975;BME280;61166;54.228;37.632;2023-01-16T06:03:05;99516.94;;;-5.51;nan
72975;BME280;61166;54.228;37.632;2023-01-16T06:05:33;99518.78;;;-5.53;nan
72975;BME280;61166;54.228;37.632;2023-01-16T06:08:00;99534.47;;;-5.45;nan
72975;BME280;61166;54.228;37.632;2023-01-16T06:10:27;99518.28;;;-5.46;nan
72975;BME280;61166;54.228;37.632;2023-01-16T06:12:54;99519.09;;;-5.45;nan
72975;BME280;61166;54.228;37.632;2023-01-16T06:15:21;99522.28;;;-5.42;nan
72975;BME280;61166;54.228;37.632;2023-01-16T06:17:48;99519.59;;;-5.53;nan
72975;BME280;61166;54.228;37.632;2023-01-16T06:20:14;99513.16;;;-5.58;nan
72975;BME280;61166;54.228;37.632;2023-01-16T06:22:43;99529.84;;;-5.66;nan
72975;BME280;61166;54.228;37.632;2023-01-16T06:25:10;99530.25;;;-5.59;nan
72975;BME280;61166;54.228;37.632;2023-01-16T06:27:37;99533.34;;;-5.41;nan
72975;BME280;61166;54.228;37.632;2023-01-16T06:30:05;99520.44;;;-5.52;nan
72975;BME280;61166;54.228;37.632;2023-01-16T06:32:32;99534.47;;;-5.45;nan
72975;BME280;61166;54.228;37.632;2023-01-16T06:34:59;99517.97;;;-5.41;nan
72975;BME280;61166;54.228;37.632;2023-01-16T06:37:25;99510.00;;;-5.24;nan
72975;BME280;61166;54.228;37.632;2023-01-16T06:39:52;99500.16;;;-5.30;nan
72975;BME280;61166;54.228;37.632;2023-01-16T06:42:19;99514.28;;;-5.37;nan
72975;BME280;61166;54.228;37.632;2023-01-16T06:44:45;99517.38;;;-5.32;nan
72975;BME280;61166;54.228;37.632;2023-01-16T06:47:12;99518.91;;;-5.29;nan
72975;BME280;61166;54.228;37.632;2023-01-16T06:49:39;99521.44;;;-5.17;nan
72975;BME280;61166;54.228;37.632;2023-01-16T06:52:05;99508.97;;;-5.34;nan
72975;BME280;61166;54.228;37.632;2023-01-16T06:54:31;99514.66;;;-5.18;nan
72975;BME280;61166;54.228;37.632;2023-01-16T06:56:58;99517.69;;;-5.24;nan
72975;BME280;61166;54.228;37.632;2023-01-16T06:59:25;99512.81;;;-5.16;nan
72975;BME280;61166;54.228;37.632;2023-01-16T07:01:51;99510.59;;;-5.20;nan
72975;BME280;61166;54.228;37.632;2023-01-16T07:04:18;99506.41;;;-5.34;nan
72975;BME280;61166;54.228;37.632;2023-01-16T07:06:44;99508.84;;;-5.20;nan
72975;BME280;61166;54.228;37.632;2023-01-16T07:09:11;99527.59;;;-5.19;nan
72975;BME280;61166;54.228;37.632;2023-01-16T07:11:38;99505.59;;;-5.35;nan
72975;BME280;61166;54.228;37.632;2023-01-16T07:14:04;99516.75;;;-5.23;nan
72975;BME280;61166;54.228;37.632;2023-01-16T07:16:31;99520.84;;;-5.33;nan
72975;BME280;61166;54.228;37.632;2023-01-16T07:18:57;99517.16;;;-5.42;nan
72975;BME280;61166;54.228;37.632;2023-01-16T07:21:26;99515.53;;;-5.30;nan
72975;BME280;61166;54.228;37.632;2023-01-16T07:23:57;99513.16;;;-5.46;nan
72975;BME280;61166;54.228;37.632;2023-01-16T07:26:26;99523.94;;;-5.28;nan
72975;BME280;61166;54.228;37.632;2023-01-16T07:28:54;99518.59;;;-5.38;nan
72975;BME280;61166;54.228;37.632;2023-01-16T07:31:22;99511.41;;;-5.33;nan
72975;BME280;61166;54.228;37.632;2023-01-16T07:33:49;99505.88;;;-5.39;nan
72975;BME280;61166;54.228;37.632;2023-01-16T07:36:15;99506.19;;;-5.31;nan
72975;BME280;61166;54.228;37.632;2023-01-16T07:38:42;99525.63;;;-5.03;nan
72975;BME280;61166;54.228;37.632;2023-01-16T07:41:08;99529.97;;;-5.42;nan
72975;BME280;61166;54.228;37.632;2023-01-16T07:43:35;99509.16;;;-5.24;nan
72975;BME280;61166;54.228;37.632;2023-01-16T07:46:02;99517.88;;;-5.27;nan
72975;BME280;61166;54.228;37.632;2023-01-16T07:48:28;99515.94;;;-5.23;nan
72975;BME280;61166;54.228;37.632;2023-01-16T07:50:56;99521.34;;;-5.03;nan
72975;BME280;61166;54.228;37.632;2023-01-16T07:53:26;99516.31;;;-5.17;nan
72975;BME280;61166;54.228;37.632;2023-01-16T07:55:56;99500.50;;;-5.11;nan
72975;BME280;61166;54.228;37.632;2023-01-16T07:58:23;99507.53;;;-5.38;nan
72975;BME280;61166;54.228;37.632;2023-01-16T08:00:52;99500.81;;;-5.15;nan
72975;BME280;61166;54.228;37.632;2023-01-16T08:03:19;99497.47;;;-5.41;nan
72975;BME280;61166;54.228;37.632;2023-01-16T08:05:46;99504.09;;;-5.13;nan
72975;BME280;61166;54.228;37.632;2023-01-16T08:08:13;99541.75;;;-5.14;nan
72975;BME280;61166;54.228;37.632;2023-01-16T08:10:40;99491.66;;;-4.94;nan
72975;BME280;61166;54.228;37.632;2023-01-16T08:13:06;99492.56;;;-5.32;nan
72975;BME280;61166;54.228;37.632;2023-01-16T08:15:33;99487.09;;;-5.14;nan
72975;BME280;61166;54.228;37.632;2023-01-16T08:18:00;99492.81;;;-5.11;nan
72975;BME280;61166;54.228;37.632;2023-01-16T08:20:26;99485.78;;;-5.20;nan
72975;BME280;61166;54.228;37.632;2023-01-16T08:22:53;99490.91;;;-5.33;nan
72975;BME280;61166;54.228;37.632;2023-01-16T08:25:21;99497.69;;;-5.32;nan
72975;BME280;61166;54.228;37.632;2023-01-16T08:27:48;99501.16;;;-5.20;nan
72975;BME280;61166;54.228;37.632;2023-01-16T08:30:15;99492.97;;;-5.38;nan
72975;BME280;61166;54.228;37.632;2023-01-16T08:32:45;99490.69;;;-5.17;nan
72975;BME280;61166;54.228;37.632;2023-01-16T08:35:12;99497.88;;;-5.22;nan
72975;BME280;61166;54.228;37.632;2023-01-16T08:37:38;99496.03;;;-5.20;nan
72975;BME280;61166;54.228;37.632;2023-01-16T08:40:05;99485.28;;;-5.25;nan
72975;BME280;61166;54.228;37.632;2023-01-16T08:42:32;99482.31;;;-5.44;nan
72975;BME280;61166;54.228;37.632;2023-01-16T08:44:59;99488.25;;;-5.56;nan
72975;BME280;61166;54.228;37.632;2023-01-16T08:47:26;99485.59;;;-5.42;nan
72975;BME280;61166;54.228;37.632;2023-01-16T08:49:52;99485.06;;;-5.35;nan
72975;BME280;61166;54.228;37.632;2023-01-16T08:52:19;99486.81;;;-5.35;nan
72975;BME280;61166;54.228;37.632;2023-01-16T08:54:46;99479.84;;;-5.33;nan
72975;BME280;61166;54.228;37.632;2023-01-16T08:57:12;99456.78;;;-5.33;nan
72975;BME280;61166;54.228;37.632;2023-01-16T08:59:39;99471.19;;;-5.19;nan
72975;BME280;61166;54.228;37.632;2023-01-16T09:02:07;99480.34;;;-5.66;nan
72975;BME280;61166;54.228;37.632;2023-01-16T09:04:36;99488.97;;;-5.54;nan
72975;BME280;61166;54.228;37.632;2023-01-16T09:07:03;99472.66;;;-5.53;nan
72975;BME280;61166;54.228;37.632;2023-01-16T09:09:29;99467.53;;;-5.28;nan
72975;BME280;61166;54.228;37.632;2023-01-16T09:11:56;99467.34;;;-5.50;nan
72975;BME280;61166;54.228;37.632;2023-01-16T09:14:23;99463.34;;;-5.29;nan
72975;BME280;61166;54.228;37.632;2023-01-16T09:16:52;99449.22;;;-5.11;nan
72975;BME280;61166;54.228;37.632;2023-01-16T09:19:18;99460.84;;;-5.18;nan
72975;BME280;61166;54.228;37.632;2023-01-16T09:21:45;99452.94;;;-5.15;nan
72975;BME280;61166;54.228;37.632;2023-01-16T09:24:12;99447.59;;;-5.12;nan
72975;BME280;61166;54.228;37.632;2023-01-16T09:26:38;99440.63;;;-5.10;nan
72975;BME280;61166;54.228;37.632;2023-01-16T09:29:05;99437.69;;;-4.92;nan
72975;BME280;61166;54.228;37.632;2023-01-16T09:31:32;99432.31;;;-4.77;nan
72975;BME280;61166;54.228;37.632;2023-01-16T09:33:58;99430.28;;;-4.84;nan
72975;BME280;61166;54.228;37.632;2023-01-16T09:36:25;99433.97;;;-4.76;nan
72975;BME280;61166;54.228;37.632;2023-01-16T09:38:51;99423.31;;;-4.82;nan
72975;BME280;61166;54.228;37.632;2023-01-16T09:41:18;99431.94;;;-4.83;nan
72975;BME280;61166;54.228;37.632;2023-01-16T09:43:47;99423.59;;;-4.74;nan
72975;BME280;61166;54.228;37.632;2023-01-16T09:48:55;99419.72;;;-4.80;nan
72975;BME280;61166;54.228;37.632;2023-01-16T09:51:27;99404.91;;;-4.76;nan
72975;BME280;61166;54.228;37.632;2023-01-16T09:53:59;99420.72;;;-4.58;nan
72975;BME280;61166;54.228;37.632;2023-01-16T09:56:45;99401.69;;;-4.67;nan
72975;BME280;61166;54.228;37.632;2023-01-16T09:59:27;99435.03;;;-4.43;nan
72975;BME280;61166;54.228;37.632;2023-01-16T10:04:46;99397.31;;;-4.54;nan
72975;BME280;61166;54.228;37.632;2023-01-16T10:12:18;99397.75;;;-4.60;nan
72975;BME280;61166;54.228;37.632;2023-01-16T10:15:26;99399.44;;;-4.48;nan
72975;BME280;61166;54.228;37.632;2023-01-16T10:18:02;99417.66;;;-4.40;nan
72975;BME280;61166;54.228;37.632;2023-01-16T10:20:43;99405.31;;;-4.35;nan
72975;BME280;61166;54.228;37.632;2023-01-16T10:23:30;99405.53;;;-4.38;nan
72975;BME280;61166;54.228;37.632;2023-01-16T10:26:09;99395.31;;;-4.26;nan
72975;BME280;61166;54.228;37.632;2023-01-16T10:28:46;99403.19;;;-4.41;nan
72975;BME280;61166;54.228;37.632;2023-01-16T10:31:27;99399.97;;;-4.32;nan
72975;BME280;61166;54.228;37.632;2023-01-16T10:34:07;99430.59;;;-4.17;nan
72975;BME280;61166;54.228;37.632;2023-01-16T10:36:39;99401.38;;;-4.27;nan
72975;BME280;61166;54.228;37.632;2023-01-16T10:39:11;99402.41;;;-4.30;nan
72975;BME280;61166;54.228;37.632;2023-01-16T10:41:48;99392.66;;;-4.03;nan
72975;BME280;61166;54.228;37.632;2023-01-16T10:44:34;99389.53;;;-3.95;nan
72975;BME280;61166;54.228;37.632;2023-01-16T10:47:01;99391.91;;;-4.27;nan
72975;BME280;61166;54.228;37.632;2023-01-16T10:49:29;99389.03;;;-4.11;nan
72975;BME280;61166;54.228;37.632;2023-01-16T10:51:58;99398.06;;;-4.06;nan
72975;BME280;61166;54.228;37.632;2023-01-16T10:54:26;99383.94;;;-3.89;nan
72975;BME280;61166;54.228;37.632;2023-01-16T10:56:53;99398.88;;;-4.05;nan
72975;BME280;61166;54.228;37.632;2023-01-16T10:59:20;99391.53;;;-3.87;nan
72975;BME280;61166;54.228;37.632;2023-01-16T11:01:48;99383.69;;;-4.08;nan
72975;BME280;61166;54.228;37.632;2023-01-16T11:04:18;99389.97;;;-4.01;nan
72975;BME280;61166;54.228;37.632;2023-01-16T11:06:46;99377.84;;;-3.99;nan
72975;BME280;61166;54.228;37.632;2023-01-16T11:11:39;99380.66;;;-3.80;nan
72975;BME280;61166;54.228;37.632;2023-01-16T11:14:21;99365.94;;;-3.89;nan
72975;BME280;61166;54.228;37.632;2023-01-16T11:16:48;99371.56;;;-4.06;nan
72975;BME280;61166;54.228;37.632;2023-01-16T11:21:44;99369.94;;;-3.74;nan
72975;BME280;61166;54.228;37.632;2023-01-16T11:24:18;99372.09;;;-4.03;nan
72975;BME280;61166;54.228;37.632;2023-01-16T11:26:48;99365.94;;;-3.89;nan
72975;BME280;61166;54.228;37.632;2023-01-16T11:29:17;99369.09;;;-3.85;nan
72975;BME280;61166;54.228;37.632;2023-01-16T11:31:57;99369.53;;;-4.03;nan
72975;BME280;61166;54.228;37.632;2023-01-16T11:34:26;99377.63;;;-3.85;nan
72975;BME280;61166;54.228;37.632;2023-01-16T11:36:54;99384.28;;;-3.82;nan
72975;BME280;61166;54.228;37.632;2023-01-16T11:39:25;99374.59;;;-3.79;nan
72975;BME280;61166;54.228;37.632;2023-01-16T11:41:55;99383.22;;;-4.13;nan
72975;BME280;61166;54.228;37.632;2023-01-16T11:44:32;99379.69;;;-4.01;nan
72975;BME280;61166;54.228;37.632;2023-01-16T11:47:00;99379.47;;;-3.98;nan
72975;BME280;61166;54.228;37.632;2023-01-16T11:49:39;99382.28;;;-3.90;nan
72975;BME280;61166;54.228;37.632;2023-01-16T11:52:12;99372.13;;;-3.91;nan
72975;BME280;61166;54.228;37.632;2023-01-16T11:54:39;99382.16;;;-4.11;nan
72975;BME280;61166;54.228;37.632;2023-01-16T11:57:24;99384.84;;;-4.01;nan
72975;BME280;61166;54.228;37.632;2023-01-16T12:11:06;99373.88;;;-4.14;nan
72975;BME280;61166;54.228;37.632;2023-01-16T12:25:27;99368.50;;;-4.11;nan
72975;BME280;61166;54.228;37.632;2023-01-16T12:28:06;99372.13;;;-4.14;nan
72975;BME280;61166;54.228;37.632;2023-01-16T12:33:49;99364.41;;;-4.14;nan
72975;BME280;61166;54.228;37.632;2023-01-16T12:59:00;99375.75;;;-4.05;nan
72975;BME280;61166;54.228;37.632;2023-01-16T13:01:35;99374.09;;;-3.95;nan
72975;BME280;61166;54.228;37.632;2023-01-16T13:04:22;99367.22;;;-4.06;nan
72975;BME280;61166;54.228;37.632;2023-01-16T13:06:58;99371.44;;;-3.93;nan
72975;BME280;61166;54.228;37.632;2023-01-16T13:12:18;99374.09;;;-3.95;nan
72975;BME280;61166;54.228;37.632;2023-01-16T13:14:49;99360.81;;;-3.89;nan
72975;BME280;61166;54.228;37.632;2023-01-16T13:17:26;99375.75;;;-3.94;nan
72975;BME280;61166;54.228;37.632;2023-01-16T13:20:01;99377.38;;;-3.93;nan
72975;BME280;61166;54.228;37.632;2023-01-16T13:22:37;99380.78;;;-3.92;nan
72975;BME280;61166;54.228;37.632;2023-01-16T13:25:21;99377.03;;;-4.11;nan
72975;BME280;61166;54.228;37.632;2023-01-16T13:27:55;99381.00;;;-4.07;nan
72975;BME280;61166;54.228;37.632;2023-01-16T13:30:23;99368.28;;;-4.08;nan
72975;BME280;61166;54.228;37.632;2023-01-16T13:33:03;99373.88;;;-3.92;nan
72975;BME280;61166;54.228;37.632;2023-01-16T13:35:50;99376.81;;;-4.08;nan
72975;BME280;61166;54.228;37.632;2023-01-16T13:41:15;99359.41;;;-3.82;nan
72975;BME280;61166;54.228;37.632;2023-01-16T13:43:54;99356.38;;;-3.87;nan
72975;BME280;61166;54.228;37.632;2023-01-16T13:46:22;99368.75;;;-3.92;nan
72975;BME280;61166;54.228;37.632;2023-01-16T13:48:54;99359.41;;;-3.93;nan
72975;BME280;61166;54.228;37.632;2023-01-16T13:51:23;99364.66;;;-3.83;nan
72975;BME280;61166;54.228;37.632;2023-01-16T13:53:53;99382.06;;;-3.87;nan
72975;BME280;61166;54.228;37.632;2023-01-16T13:56:22;99370.50;;;-3.92;nan
72975;BME280;61166;54.228;37.632;2023-01-16T13:59:00;99366.19;;;-3.81;nan
72975;BME280;61166;54.228;37.632;2023-01-16T14:06:50;99387.28;;;-4.00;nan
72975;BME280;61166;54.228;37.632;2023-01-16T14:12:18;99386.63;;;-3.90;nan
72975;BME280;61166;54.228;37.632;2023-01-16T14:14:48;99391.19;;;-3.83;nan
72975;BME280;61166;54.228;37.632;2023-01-16T14:17:16;99392.25;;;-3.74;nan
72975;BME280;61166;54.228;37.632;2023-01-16T14:20:03;99379.50;;;-3.76;nan
72975;BME280;61166;54.228;37.632;2023-01-16T14:22:40;99388.84;;;-3.86;nan
72975;BME280;61166;54.228;37.632;2023-01-16T14:25:20;99373.69;;;-3.67;nan
72975;BME280;61166;54.228;37.632;2023-01-16T14:27:52;99389.44;;;-3.82;nan
72975;BME280;61166;54.228;37.632;2023-01-16T14:30:24;99373.19;;;-3.83;nan
72975;BME280;61166;54.228;37.632;2023-01-16T14:32:56;99372.03;;;-3.68;nan
72975;BME280;61166;54.228;37.632;2023-01-16T14:35:27;99358.84;;;-3.63;nan
72975;BME280;61166;54.228;37.632;2023-01-16T14:38:06;99363.16;;;-3.75;nan
72975;BME280;61166;54.228;37.632;2023-01-16T14:40:37;99358.72;;;-3.73;nan
72975;BME280;61166;54.228;37.632;2023-01-16T14:43:04;99353.13;;;-3.67;nan
72975;BME280;61166;54.228;37.632;2023-01-16T14:45:37;99354.53;;;-3.62;nan
72975;BME280;61166;54.228;37.632;2023-01-16T14:50:44;99344.00;;;-3.59;nan
72975;BME280;61166;54.228;37.632;2023-01-16T14:53:20;99351.13;;;-3.74;nan
72975;BME280;61166;54.228;37.632;2023-01-16T14:55:53;99338.16;;;-3.84;nan
72975;BME280;61166;54.228;37.632;2023-01-16T15:00:57;99340.97;;;-3.76;nan
72975;BME280;61166;54.228;37.632;2023-01-16T15:03:28;99345.06;;;-3.73;nan
72975;BME280;61166;54.228;37.632;2023-01-16T15:05:57;99330.34;;;-3.71;nan
72975;BME280;61166;54.228;37.632;2023-01-16T15:08:31;99331.16;;;-3.82;nan
72975;BME280;61166;54.228;37.632;2023-01-16T15:11:06;99333.00;;;-3.84;nan
72975;BME280;61166;54.228;37.632;2023-01-16T15:13:35;99329.28;;;-3.80;nan
72975;BME280;61166;54.228;37.632;2023-01-16T15:16:05;99336.75;;;-3.88;nan
72975;BME280;61166;54.228;37.632;2023-01-16T15:18:42;99333.94;;;-3.74;nan
72975;BME280;61166;54.228;37.632;2023-01-16T15:21:14;99333.72;;;-3.82;nan
72975;BME280;61166;54.228;37.632;2023-01-16T15:23:41;99329.16;;;-3.78;nan